sensor_id;sensor_type;location;lat;lon;timestamp;temperature;humidity
4584;DHT22;2304;47.606;12.186;2022-09-16T00:00:04;17.60;78.00
4584;DHT22;2304;47.606;12.186;2022-09-16T00:05:08;17.60;77.20
4584;DHT22;2304;47.606;12.186;2022-09-16T00:10:10;17.60;76.90
4584;DHT22;2304;47.606;12.186;2022-09-16T00:15:14;17.60;76.80
4584;DHT22;2304;47.606;12.186;2022-09-16T00:20:16;17.60;77.00
4584;DHT22;2304;47.606;12.186;2022-09-16T00:25:18;17.60;76.80
4584;DHT22;2304;47.606;12.186;2022-09-16T00:30:21;17.60;76.80
4584;DHT22;2304;47.606;12.186;2022-09-16T00:35:23;17.50;75.90
4584;DHT22;2304;47.606;12.186;2022-09-16T00:40:25;17.50;76.60
4584;DHT22;2304;47.606;12.186;2022-09-16T00:45:28;17.70;77.20
4584;DHT22;2304;47.606;12.186;2022-09-16T00:50:34;17.50;76.60
4584;DHT22;2304;47.606;12.186;2022-09-16T00:55:39;17.50;76.50
4584;DHT22;2304;47.606;12.186;2022-09-16T01:00:42;17.40;75.70
4584;DHT22;2304;47.606;12.186;2022-09-16T01:05:45;17.30;76.00
4584;DHT22;2304;47.606;12.186;2022-09-16T01:10:47;17.40;76.10
4584;DHT22;2304;47.606;12.186;2022-09-16T01:15:54;17.40;75.70
4584;DHT22;2304;47.606;12.186;2022-09-16T01:21:12;17.40;75.80
4584;DHT22;2304;47.606;12.186;2022-09-16T01:26:31;17.40;76.00
4584;DHT22;2304;47.606;12.186;2022-09-16T01:31:41;17.30;76.40
4584;DHT22;2304;47.606;12.186;2022-09-16T01:36:47;17.30;76.60
4584;DHT22;2304;47.606;12.186;2022-09-16T01:42:00;17.30;76.90
4584;DHT22;2304;47.606;12.186;2022-09-16T01:47:11;17.20;76.80
4584;DHT22;2304;47.606;12.186;2022-09-16T01:52:22;17.10;76.60
4584;DHT22;2304;47.606;12.186;2022-09-16T01:57:30;17.00;77.50
4584;DHT22;2304;47.606;12.186;2022-09-16T02:02:39;17.10;77.80
4584;DHT22;2304;47.606;12.186;2022-09-16T02:07:46;17.10;77.60
4584;DHT22;2304;47.606;12.186;2022-09-16T02:12:50;17.10;77.60
4584;DHT22;2304;47.606;12.186;2022-09-16T02:17:59;17.30;77.50
4584;DHT22;2304;47.606;12.186;2022-09-16T02:23:06;17.20;77.10
4584;DHT22;2304;47.606;12.186;2022-09-16T02:28:11;17.10;77.10
4584;DHT22;2304;47.606;12.186;2022-09-16T02:33:16;17.00;76.40
4584;DHT22;2304;47.606;12.186;2022-09-16T02:38:22;17.00;76.80
4584;DHT22;2304;47.606;12.186;2022-09-16T02:43:26;17.00;76.30
4584;DHT22;2304;47.606;12.186;2022-09-16T02:48:39;17.00;76.30
4584;DHT22;2304;47.606;12.186;2022-09-16T02:53:47;17.10;76.50
4584;DHT22;2304;47.606;12.186;2022-09-16T02:58:53;17.10;76.80
4584;DHT22;2304;47.606;12.186;2022-09-16T03:03:56;16.90;76.30
4584;DHT22;2304;47.606;12.186;2022-09-16T03:09:00;16.90;77.80
4584;DHT22;2304;47.606;12.186;2022-09-16T03:14:23;16.90;77.20
4584;DHT22;2304;47.606;12.186;2022-09-16T03:19:33;16.90;77.10
4584;DHT22;2304;47.606;12.186;2022-09-16T03:24:44;17.00;78.30
4584;DHT22;2304;47.606;12.186;2022-09-16T03:29:51;16.80;78.20
4584;DHT22;2304;47.606;12.186;2022-09-16T03:35:01;16.80;77.40
4584;DHT22;2304;47.606;12.186;2022-09-16T03:40:08;16.80;77.30
4584;DHT22;2304;47.606;12.186;2022-09-16T03:45:14;16.70;77.20
4584;DHT22;2304;47.606;12.186;2022-09-16T03:50:19;16.50;79.50
4584;DHT22;2304;47.606;12.186;2022-09-16T03:55:21;16.50;80.00
4584;DHT22;2304;47.606;12.186;2022-09-16T04:00:22;16.70;79.50
4584;DHT22;2304;47.606;12.186;2022-09-16T04:05:26;16.80;79.10
4584;DHT22;2304;47.606;12.186;2022-09-16T04:10:27;16.80;78.30
4584;DHT22;2304;47.606;12.186;2022-09-16T04:15:29;17.10;78.70
4584;DHT22;2304;47.606;12.186;2022-09-16T04:20:33;16.80;78.00
4584;DHT22;2304;47.606;12.186;2022-09-16T04:25:35;16.70;77.40
4584;DHT22;2304;47.606;12.186;2022-09-16T04:30:37;16.60;78.70
4584;DHT22;2304;47.606;12.186;2022-09-16T04:35:40;16.60;78.30
4584;DHT22;2304;47.606;12.186;2022-09-16T04:40:42;16.70;78.60
4584;DHT22;2304;47.606;12.186;2022-09-16T04:45:44;16.70;78.80
4584;DHT22;2304;47.606;12.186;2022-09-16T04:50:47;16.70;78.90
4584;DHT22;2304;47.606;12.186;2022-09-16T04:55:48;16.70;79.20
4584;DHT22;2304;47.606;12.186;2022-09-16T05:00:50;16.70;79.00
4584;DHT22;2304;47.606;12.186;2022-09-16T05:05:53;16.70;78.30
4584;DHT22;2304;47.606;12.186;2022-09-16T05:10:55;16.70;79.10
4584;DHT22;2304;47.606;12.186;2022-09-16T05:16:04;16.70;78.90
4584;DHT22;2304;47.606;12.186;2022-09-16T05:21:09;16.60;78.30
4584;DHT22;2304;47.606;12.186;2022-09-16T05:26:13;16.70;78.70
4584;DHT22;2304;47.606;12.186;2022-09-16T05:31:17;16.60;78.80
4584;DHT22;2304;47.606;12.186;2022-09-16T05:36:21;16.90;79.90
4584;DHT22;2304;47.606;12.186;2022-09-16T05:41:23;16.70;79.70
4584;DHT22;2304;47.606;12.186;2022-09-16T05:46:26;16.80;79.80
4584;DHT22;2304;47.606;12.186;2022-09-16T05:51:29;16.70;79.90
4584;DHT22;2304;47.606;12.186;2022-09-16T05:56:31;16.70;79.80
4584;DHT22;2304;47.606;12.186;2022-09-16T06:01:34;16.70;79.50
4584;DHT22;2304;47.606;12.186;2022-09-16T06:06:39;16.70;80.00
4584;DHT22;2304;47.606;12.186;2022-09-16T06:11:42;16.60;80.80
4584;DHT22;2304;47.606;12.186;2022-09-16T06:16:45;16.60;80.30
4584;DHT22;2304;47.606;12.186;2022-09-16T06:21:48;16.60;80.60
4584;DHT22;2304;47.606;12.186;2022-09-16T06:26:50;16.60;80.20
4584;DHT22;2304;47.606;12.186;2022-09-16T06:31:52;16.50;80.00
4584;DHT22;2304;47.606;12.186;2022-09-16T06:36:55;16.50;80.30
4584;DHT22;2304;47.606;12.186;2022-09-16T06:41:57;16.50;80.60
4584;DHT22;2304;47.606;12.186;2022-09-16T06:46:59;16.50;81.10
4584;DHT22;2304;47.606;12.186;2022-09-16T06:52:02;16.50;82.10
4584;DHT22;2304;47.606;12.186;2022-09-16T06:57:04;16.50;82.30
4584;DHT22;2304;47.606;12.186;2022-09-16T07:02:07;16.60;82.10
4584;DHT22;2304;47.606;12.186;2022-09-16T07:07:11;16.60;81.30
4584;DHT22;2304;47.606;12.186;2022-09-16T07:12:13;16.70;81.10
4584;DHT22;2304;47.606;12.186;2022-09-16T07:17:14;16.70;80.70
4584;DHT22;2304;47.606;12.186;2022-09-16T07:22:17;16.70;80.10
4584;DHT22;2304;47.606;12.186;2022-09-16T07:27:19;16.80;80.60
4584;DHT22;2304;47.606;12.186;2022-09-16T07:32:21;16.80;79.80
4584;DHT22;2304;47.606;12.186;2022-09-16T07:37:25;16.80;80.10
4584;DHT22;2304;47.606;12.186;2022-09-16T07:42:28;16.90;81.20
4584;DHT22;2304;47.606;12.186;2022-09-16T07:47:29;17.00;81.50
4584;DHT22;2304;47.606;12.186;2022-09-16T07:52:33;17.00;80.50
4584;DHT22;2304;47.606;12.186;2022-09-16T07:57:34;17.20;80.30
4584;DHT22;2304;47.606;12.186;2022-09-16T08:02:36;17.20;79.60
4584;DHT22;2304;47.606;12.186;2022-09-16T08:07:40;17.20;78.60
4584;DHT22;2304;47.606;12.186;2022-09-16T08:12:45;17.20;76.70
4584;DHT22;2304;47.606;12.186;2022-09-16T08:17:47;17.20;76.80
4584;DHT22;2304;47.606;12.186;2022-09-16T08:22:50;17.30;78.30
4584;DHT22;2304;47.606;12.186;2022-09-16T08:27:52;17.50;77.30
4584;DHT22;2304;47.606;12.186;2022-09-16T08:32:55;17.40;77.80
4584;DHT22;2304;47.606;12.186;2022-09-16T08:37:59;17.50;77.80
4584;DHT22;2304;47.606;12.186;2022-09-16T08:43:07;17.70;78.10
4584;DHT22;2304;47.606;12.186;2022-09-16T08:48:23;17.90;75.60
4584;DHT22;2304;47.606;12.186;2022-09-16T08:53:33;17.80;74.10
4584;DHT22;2304;47.606;12.186;2022-09-16T08:58:39;17.80;72.00
4584;DHT22;2304;47.606;12.186;2022-09-16T09:03:45;17.90;73.40
4584;DHT22;2304;47.606;12.186;2022-09-16T09:08:55;18.20;74.00
4584;DHT22;2304;47.606;12.186;2022-09-16T09:14:23;18.30;75.00
4584;DHT22;2304;47.606;12.186;2022-09-16T09:19:39;18.40;69.50
4584;DHT22;2304;47.606;12.186;2022-09-16T09:24:52;18.90;70.00
4584;DHT22;2304;47.606;12.186;2022-09-16T10:00:11;20.50;61.00
4584;DHT22;2304;47.606;12.186;2022-09-16T10:05:21;21.10;60.40
4584;DHT22;2304;47.606;12.186;2022-09-16T10:10:25;21.30;59.50
4584;DHT22;2304;47.606;12.186;2022-09-16T10:15:29;21.20;61.60
4584;DHT22;2304;47.606;12.186;2022-09-16T10:20:37;21.20;59.30
4584;DHT22;2304;47.606;12.186;2022-09-16T10:25:40;21.30;59.60
4584;DHT22;2304;47.606;12.186;2022-09-16T10:30:46;21.30;59.10
4584;DHT22;2304;47.606;12.186;2022-09-16T10:35:54;21.20;59.90
4584;DHT22;2304;47.606;12.186;2022-09-16T10:41:02;21.20;58.60
4584;DHT22;2304;47.606;12.186;2022-09-16T10:46:06;21.20;58.90
4584;DHT22;2304;47.606;12.186;2022-09-16T10:51:21;21.30;61.10
4584;DHT22;2304;47.606;12.186;2022-09-16T10:56:26;21.30;58.70
4584;DHT22;2304;47.606;12.186;2022-09-16T11:01:38;21.50;58.50
4584;DHT22;2304;47.606;12.186;2022-09-16T11:06:53;21.50;56.60
4584;DHT22;2304;47.606;12.186;2022-09-16T11:12:08;21.80;57.20
4584;DHT22;2304;47.606;12.186;2022-09-16T11:17:28;22.00;53.10
4584;DHT22;2304;47.606;12.186;2022-09-16T11:22:35;22.20;55.40
4584;DHT22;2304;47.606;12.186;2022-09-16T11:27:44;22.40;52.40
4584;DHT22;2304;47.606;12.186;2022-09-16T11:33:04;22.40;53.50
4584;DHT22;2304;47.606;12.186;2022-09-16T11:38:14;22.40;54.50
4584;DHT22;2304;47.606;12.186;2022-09-16T11:43:39;22.50;56.50
4584;DHT22;2304;47.606;12.186;2022-09-16T11:48:55;22.50;56.40
4584;DHT22;2304;47.606;12.186;2022-09-16T11:54:14;22.30;58.20
4584;DHT22;2304;47.606;12.186;2022-09-16T11:59:24;21.90;58.10
4584;DHT22;2304;47.606;12.186;2022-09-16T12:04:30;21.20;60.20
4584;DHT22;2304;47.606;12.186;2022-09-16T12:09:38;20.70;64.10
4584;DHT22;2304;47.606;12.186;2022-09-16T12:14:44;20.60;66.60
4584;DHT22;2304;47.606;12.186;2022-09-16T12:19:53;20.60;68.50
4584;DHT22;2304;47.606;12.186;2022-09-16T12:25:01;20.70;65.80
4584;DHT22;2304;47.606;12.186;2022-09-16T12:30:10;20.60;66.50
4584;DHT22;2304;47.606;12.186;2022-09-16T12:35:18;21.00;67.40
4584;DHT22;2304;47.606;12.186;2022-09-16T12:40:24;21.70;66.30
4584;DHT22;2304;47.606;12.186;2022-09-16T12:45:50;22.20;64.60
4584;DHT22;2304;47.606;12.186;2022-09-16T12:51:07;22.50;59.70
4584;DHT22;2304;47.606;12.186;2022-09-16T12:56:18;22.60;59.60
4584;DHT22;2304;47.606;12.186;2022-09-16T13:01:25;22.60;57.10
4584;DHT22;2304;47.606;12.186;2022-09-16T13:06:32;22.80;58.30
4584;DHT22;2304;47.606;12.186;2022-09-16T13:11:34;22.60;54.90
4584;DHT22;2304;47.606;12.186;2022-09-16T13:16:36;22.40;57.90
4584;DHT22;2304;47.606;12.186;2022-09-16T13:21:42;22.00;57.40
4584;DHT22;2304;47.606;12.186;2022-09-16T13:26:44;21.70;55.60
4584;DHT22;2304;47.606;12.186;2022-09-16T13:31:47;21.50;58.30
4584;DHT22;2304;47.606;12.186;2022-09-16T13:36:50;20.40;58.90
4584;DHT22;2304;47.606;12.186;2022-09-16T13:41:52;19.60;61.10
4584;DHT22;2304;47.606;12.186;2022-09-16T13:47:04;18.60;61.40
4584;DHT22;2304;47.606;12.186;2022-09-16T13:52:11;18.10;63.10
4584;DHT22;2304;47.606;12.186;2022-09-16T13:57:29;17.80;64.80
4584;DHT22;2304;47.606;12.186;2022-09-16T14:02:43;17.40;65.90
4584;DHT22;2304;47.606;12.186;2022-09-16T14:07:54;17.30;67.60
4584;DHT22;2304;47.606;12.186;2022-09-16T14:13:03;17.00;67.10
4584;DHT22;2304;47.606;12.186;2022-09-16T14:18:12;17.10;66.50
4584;DHT22;2304;47.606;12.186;2022-09-16T14:23:18;16.80;66.00
4584;DHT22;2304;47.606;12.186;2022-09-16T14:28:22;17.20;67.50
4584;DHT22;2304;47.606;12.186;2022-09-16T14:33:26;17.00;65.40
4584;DHT22;2304;47.606;12.186;2022-09-16T14:38:41;17.10;65.90
4584;DHT22;2304;47.606;12.186;2022-09-16T14:43:44;17.20;65.00
4584;DHT22;2304;47.606;12.186;2022-09-16T14:48:47;17.10;64.60
4584;DHT22;2304;47.606;12.186;2022-09-16T14:53:55;17.00;63.30
4584;DHT22;2304;47.606;12.186;2022-09-16T14:58:57;17.00;64.80
4584;DHT22;2304;47.606;12.186;2022-09-16T15:04:02;16.90;64.10
4584;DHT22;2304;47.606;12.186;2022-09-16T15:09:14;16.70;64.50
4584;DHT22;2304;47.606;12.186;2022-09-16T15:14:17;16.70;64.70
4584;DHT22;2304;47.606;12.186;2022-09-16T15:19:22;16.60;64.40
4584;DHT22;2304;47.606;12.186;2022-09-16T15:24:28;16.50;65.50
4584;DHT22;2304;47.606;12.186;2022-09-16T15:29:32;16.50;65.10
4584;DHT22;2304;47.606;12.186;2022-09-16T15:34:36;16.50;65.90
4584;DHT22;2304;47.606;12.186;2022-09-16T15:39:39;16.40;66.30
4584;DHT22;2304;47.606;12.186;2022-09-16T15:44:47;16.40;66.20
4584;DHT22;2304;47.606;12.186;2022-09-16T15:49:52;16.30;65.90
4584;DHT22;2304;47.606;12.186;2022-09-16T15:55:00;16.30;65.90
4584;DHT22;2304;47.606;12.186;2022-09-16T16:00:05;16.30;65.60
4584;DHT22;2304;47.606;12.186;2022-09-16T16:05:14;16.20;65.80
4584;DHT22;2304;47.606;12.186;2022-09-16T16:10:20;16.50;66.40
4584;DHT22;2304;47.606;12.186;2022-09-16T16:15:23;16.30;65.80
4584;DHT22;2304;47.606;12.186;2022-09-16T16:20:26;16.30;65.40
4584;DHT22;2304;47.606;12.186;2022-09-16T16:25:29;16.30;63.60
4584;DHT22;2304;47.606;12.186;2022-09-16T16:30:31;16.20;63.80
4584;DHT22;2304;47.606;12.186;2022-09-16T16:35:33;16.20;63.20
4584;DHT22;2304;47.606;12.186;2022-09-16T16:40:36;16.10;63.50
4584;DHT22;2304;47.606;12.186;2022-09-16T16:45:38;16.00;63.40
4584;DHT22;2304;47.606;12.186;2022-09-16T16:50:40;15.90;62.70
4584;DHT22;2304;47.606;12.186;2022-09-16T16:55:43;15.90;63.20
4584;DHT22;2304;47.606;12.186;2022-09-16T17:00:45;15.90;63.90
4584;DHT22;2304;47.606;12.186;2022-09-16T17:05:48;15.80;64.40
4584;DHT22;2304;47.606;12.186;2022-09-16T17:11:04;15.70;66.00
4584;DHT22;2304;47.606;12.186;2022-09-16T17:16:07;15.70;65.10
4584;DHT22;2304;47.606;12.186;2022-09-16T17:21:11;15.70;65.00
4584;DHT22;2304;47.606;12.186;2022-09-16T17:26:15;15.80;65.30
4584;DHT22;2304;47.606;12.186;2022-09-16T17:31:19;15.70;65.60
4584;DHT22;2304;47.606;12.186;2022-09-16T17:36:22;15.70;66.50
4584;DHT22;2304;47.606;12.186;2022-09-16T17:41:27;15.70;64.10
4584;DHT22;2304;47.606;12.186;2022-09-16T17:46:29;15.70;65.40
4584;DHT22;2304;47.606;12.186;2022-09-16T17:51:31;15.70;65.00
4584;DHT22;2304;47.606;12.186;2022-09-16T17:56:35;15.70;65.50
4584;DHT22;2304;47.606;12.186;2022-09-16T18:01:37;15.70;65.60
4584;DHT22;2304;47.606;12.186;2022-09-16T18:06:40;15.90;66.20
4584;DHT22;2304;47.606;12.186;2022-09-16T18:11:44;15.90;66.60
4584;DHT22;2304;47.606;12.186;2022-09-16T18:16:46;15.70;67.50
4584;DHT22;2304;47.606;12.186;2022-09-16T18:21:48;15.70;67.50
4584;DHT22;2304;47.606;12.186;2022-09-16T18:26:51;15.70;67.60
4584;DHT22;2304;47.606;12.186;2022-09-16T18:31:53;15.70;67.80
4584;DHT22;2304;47.606;12.186;2022-09-16T18:36:55;15.60;67.80
4584;DHT22;2304;47.606;12.186;2022-09-16T18:41:58;15.70;68.00
4584;DHT22;2304;47.606;12.186;2022-09-16T18:47:00;15.60;67.80
4584;DHT22;2304;47.606;12.186;2022-09-16T18:52:02;15.60;67.50
4584;DHT22;2304;47.606;12.186;2022-09-16T18:57:05;15.50;67.80
4584;DHT22;2304;47.606;12.186;2022-09-16T19:02:10;15.40;67.70
4584;DHT22;2304;47.606;12.186;2022-09-16T19:07:14;15.40;69.10
4584;DHT22;2304;47.606;12.186;2022-09-16T19:12:20;15.40;68.20
4584;DHT22;2304;47.606;12.186;2022-09-16T19:17:21;15.40;68.60
4584;DHT22;2304;47.606;12.186;2022-09-16T19:22:23;15.40;68.80
4584;DHT22;2304;47.606;12.186;2022-09-16T19:27:26;15.30;68.90
4584;DHT22;2304;47.606;12.186;2022-09-16T19:32:29;15.20;68.60
4584;DHT22;2304;47.606;12.186;2022-09-16T19:37:30;15.50;69.20
4584;DHT22;2304;47.606;12.186;2022-09-16T19:42:34;15.30;68.90
4584;DHT22;2304;47.606;12.186;2022-09-16T19:47:36;15.30;67.30
4584;DHT22;2304;47.606;12.186;2022-09-16T19:52:37;15.30;67.20
4584;DHT22;2304;47.606;12.186;2022-09-16T19:57:41;15.30;66.80
4584;DHT22;2304;47.606;12.186;2022-09-16T20:02:43;15.20;65.80
4584;DHT22;2304;47.606;12.186;2022-09-16T20:07:45;15.20;65.00
4584;DHT22;2304;47.606;12.186;2022-09-16T20:12:48;15.20;66.50
4584;DHT22;2304;47.606;12.186;2022-09-16T20:17:53;15.10;65.00
4584;DHT22;2304;47.606;12.186;2022-09-16T20:22:54;15.00;65.00
4584;DHT22;2304;47.606;12.186;2022-09-16T20:27:57;15.10;66.50
4584;DHT22;2304;47.606;12.186;2022-09-16T20:32:59;14.80;68.20
4584;DHT22;2304;47.606;12.186;2022-09-16T20:38:01;14.80;69.40
4584;DHT22;2304;47.606;12.186;2022-09-16T20:43:04;14.70;68.50
4584;DHT22;2304;47.606;12.186;2022-09-16T20:48:06;14.60;69.80
4584;DHT22;2304;47.606;12.186;2022-09-16T20:53:09;14.70;69.80
4584;DHT22;2304;47.606;12.186;2022-09-16T20:58:13;14.70;69.50
4584;DHT22;2304;47.606;12.186;2022-09-16T21:03:14;14.70;69.60
4584;DHT22;2304;47.606;12.186;2022-09-16T21:08:16;14.80;69.90
4584;DHT22;2304;47.606;12.186;2022-09-16T21:13:19;14.80;70.70
4584;DHT22;2304;47.606;12.186;2022-09-16T21:18:24;14.80;71.10
4584;DHT22;2304;47.606;12.186;2022-09-16T21:23:27;14.90;71.40
4584;DHT22;2304;47.606;12.186;2022-09-16T21:28:31;14.80;70.60
4584;DHT22;2304;47.606;12.186;2022-09-16T21:33:35;14.80;70.30
4584;DHT22;2304;47.606;12.186;2022-09-16T21:38:37;14.90;70.80
4584;DHT22;2304;47.606;12.186;2022-09-16T21:43:42;14.80;69.60
4584;DHT22;2304;47.606;12.186;2022-09-16T21:48:44;14.80;68.90
4584;DHT22;2304;47.606;12.186;2022-09-16T21:53:46;14.80;68.90
4584;DHT22;2304;47.606;12.186;2022-09-16T21:58:53;14.70;68.60
4584;DHT22;2304;47.606;12.186;2022-09-16T22:03:57;14.70;68.60
4584;DHT22;2304;47.606;12.186;2022-09-16T22:09:00;14.80;68.90
4584;DHT22;2304;47.606;12.186;2022-09-16T22:14:03;14.80;69.40
4584;DHT22;2304;47.606;12.186;2022-09-16T22:19:07;14.90;69.20
4584;DHT22;2304;47.606;12.186;2022-09-16T22:24:09;14.70;68.60
4584;DHT22;2304;47.606;12.186;2022-09-16T22:29:13;14.70;69.20
4584;DHT22;2304;47.606;12.186;2022-09-16T22:34:15;14.70;70.10
4584;DHT22;2304;47.606;12.186;2022-09-16T22:39:17;14.70;69.00
4584;DHT22;2304;47.606;12.186;2022-09-16T22:44:20;14.70;69.80
4584;DHT22;2304;47.606;12.186;2022-09-16T22:49:22;14.70;70.40
4584;DHT22;2304;47.606;12.186;2022-09-16T22:54:24;14.70;71.70
4584;DHT22;2304;47.606;12.186;2022-09-16T22:59:27;14.60;72.10
4584;DHT22;2304;47.606;12.186;2022-09-16T23:04:29;14.50;69.60
4584;DHT22;2304;47.606;12.186;2022-09-16T23:09:31;14.40;70.40
4584;DHT22;2304;47.606;12.186;2022-09-16T23:14:34;14.30;71.00
4584;DHT22;2304;47.606;12.186;2022-09-16T23:19:36;14.30;71.10
4584;DHT22;2304;47.606;12.186;2022-09-16T23:24:38;14.30;71.50
4584;DHT22;2304;47.606;12.186;2022-09-16T23:29:41;14.20;71.80
4584;DHT22;2304;47.606;12.186;2022-09-16T23:34:43;14.20;71.50
4584;DHT22;2304;47.606;12.186;2022-09-16T23:39:45;14.20;71.40
4584;DHT22;2304;47.606;12.186;2022-09-16T23:44:48;14.40;71.80
4584;DHT22;2304;47.606;12.186;2022-09-16T23:49:50;14.30;71.10
4584;DHT22;2304;47.606;12.186;2022-09-16T23:54:52;14.30;72.10
4584;DHT22;2304;47.606;12.186;2022-09-16T23:59:55;14.30;72.40
